createdAt,value
2018-11-06T00:02:10.304Z,58.90
2018-11-06T00:05:17.368Z,58.40
2018-11-06T00:08:12.541Z,58.30
2018-11-06T00:11:06.461Z,58.50
2018-11-06T00:13:59.631Z,58.40
2018-11-06T00:16:55.144Z,58.50
2018-11-06T00:19:47.606Z,58.30
2018-11-06T00:22:39.980Z,58.30
2018-11-06T00:25:32.086Z,58.10
2018-11-06T00:28:25.226Z,58.10
2018-11-06T00:31:19.945Z,58.20
2018-11-06T00:34:12.436Z,58.50
2018-11-06T00:37:04.615Z,58.10
2018-11-06T00:39:59.171Z,58.20
2018-11-06T00:42:53.378Z,58.00
2018-11-06T00:45:57.698Z,57.90
2018-11-06T00:48:42.107Z,57.40
2018-11-06T00:51:42.577Z,57.50
2018-11-06T00:54:36.908Z,57.60
2018-11-06T00:57:31.622Z,57.20
2018-11-06T01:00:25.857Z,57.60
2018-11-06T01:03:18.442Z,57.60
2018-11-06T01:06:10.889Z,57.60
2018-11-06T01:09:03.977Z,57.70
2018-11-06T01:11:56.152Z,57.80
2018-11-06T01:14:48.004Z,57.80
2018-11-06T01:17:44.559Z,57.60
2018-11-06T01:20:37.888Z,57.60
2018-11-06T01:23:30.458Z,57.80
2018-11-06T01:26:24.283Z,57.50
2018-11-06T01:29:17.056Z,57.60
2018-11-06T01:32:09.729Z,57.40
2018-11-06T01:35:01.316Z,57.30
2018-11-06T01:37:53.692Z,57.30
2018-11-06T01:40:45.903Z,57.50
2018-11-06T01:43:38.160Z,57.40
2018-11-06T01:46:30.763Z,57.40
2018-11-06T01:49:26.301Z,57.70
2018-11-06T01:52:18.957Z,57.60
2018-11-06T01:55:13.425Z,57.60
2018-11-06T01:58:06.173Z,57.80
2018-11-06T02:00:59.123Z,57.80
2018-11-06T02:03:51.815Z,57.90
2018-11-06T02:06:43.817Z,57.80
2018-11-06T02:09:40.197Z,57.80
2018-11-06T02:12:31.444Z,58.00
2018-11-06T02:15:25.041Z,57.90
2018-11-06T02:18:18.587Z,58.00
2018-11-06T02:21:14.986Z,58.10
2018-11-06T02:24:08.290Z,58.10
2018-11-06T02:27:01.333Z,58.20
2018-11-06T02:29:55.882Z,58.30
2018-11-06T02:32:49.600Z,58.20
2018-11-06T02:35:45.211Z,58.40
2018-11-06T02:38:37.590Z,58.70
2018-11-06T02:41:29.964Z,58.70
2018-11-06T02:44:22.241Z,58.80
2018-11-06T02:47:16.479Z,59.00
2018-11-06T02:50:09.621Z,58.90
2018-11-06T02:53:03.296Z,59.00
2018-11-06T02:55:56.544Z,59.10
2018-11-06T02:58:49.332Z,59.20
2018-11-06T03:01:42.298Z,59.30
2018-11-06T03:04:34.667Z,59.30
2018-11-06T03:07:27.885Z,59.40
2018-11-06T03:10:20.861Z,59.40
2018-11-06T03:13:13.538Z,59.60
2018-11-06T03:16:06.422Z,59.60
2018-11-06T03:19:04.565Z,59.70
2018-11-06T03:21:58.089Z,59.90
2018-11-06T03:24:51.461Z,60.00
2018-11-06T03:27:45.033Z,60.10
2018-11-06T03:30:38.434Z,60.10
2018-11-06T03:33:32.204Z,60.30
2018-11-06T03:36:24.802Z,60.30
2018-11-06T03:39:17.989Z,60.50
2018-11-06T03:42:11.649Z,60.60
2018-11-06T03:45:07.539Z,60.50
2018-11-06T03:48:01.394Z,60.80
2018-11-06T03:50:54.648Z,60.70
2018-11-06T03:53:51.143Z,61.00
2018-11-06T03:56:44.489Z,61.10
2018-11-06T03:59:37.851Z,61.10
2018-11-06T04:02:31.709Z,61.20
2018-11-06T04:05:25.442Z,61.30
2018-11-06T04:08:19.204Z,61.50
2018-11-06T04:11:16.454Z,61.80
2018-11-06T04:14:14.058Z,62.00
2018-11-06T04:17:07.403Z,61.60
2018-11-06T04:20:00.930Z,61.50
2018-11-06T04:22:53.842Z,61.40
2018-11-06T04:25:46.991Z,61.10
2018-11-06T04:28:46.797Z,60.20
2018-11-06T04:31:40.565Z,59.70
2018-11-06T04:34:33.179Z,60.20
2018-11-06T04:37:29.446Z,58.00
2018-11-06T04:40:26.705Z,56.40
2018-11-06T04:43:19.930Z,54.60
2018-11-06T04:46:09.930Z,53.80
2018-11-06T04:49:03.031Z,52.20
2018-11-06T04:51:59.675Z,51.40
2018-11-06T04:54:52.964Z,51.20
2018-11-06T04:57:58.213Z,50.00
2018-11-06T05:00:51.398Z,49.40
2018-11-06T05:03:50.426Z,49.50
2018-11-06T05:06:46.417Z,49.80
2018-11-06T05:09:38.506Z,50.10
2018-11-06T05:12:32.303Z,50.50
2018-11-06T05:15:26.828Z,51.00
2018-11-06T05:18:24.481Z,51.40
2018-11-06T05:21:14.874Z,51.80
2018-11-06T05:24:09.980Z,52.30
2018-11-06T05:27:03.213Z,52.70
2018-11-06T05:29:57.771Z,53.00
2018-11-06T05:32:52.692Z,53.40
2018-11-06T05:35:51.445Z,53.70
2018-11-06T05:40:38.491Z,54.10
2018-11-06T05:42:01.139Z,57.40
2018-11-06T05:44:51.799Z,58.20
2018-11-06T05:51:19.239Z,58.90
2018-11-06T05:54:54.003Z,58.90
2018-11-06T05:58:38.789Z,59.00
2018-11-06T06:16:37.357Z,59.50
2018-11-06T06:18:28.968Z,59.40
2018-11-06T06:24:30.183Z,59.60
2018-11-06T06:27:30.071Z,59.40
2018-11-06T06:31:14.763Z,59.30
2018-11-06T06:33:47.616Z,59.20
2018-11-06T06:37:12.911Z,59.00
2018-11-06T06:40:31.328Z,58.90
2018-11-06T06:43:43.399Z,58.60
2018-11-06T06:46:28.856Z,58.60
2018-11-06T06:49:27.917Z,58.50
2018-11-06T06:52:45.473Z,58.50
2018-11-06T06:55:39.278Z,58.60
2018-11-06T06:58:28.509Z,58.50
2018-11-06T07:01:20.680Z,58.50
2018-11-06T07:04:30.526Z,58.60
2018-11-06T07:07:09.926Z,58.50
2018-11-06T07:10:05.020Z,58.60
2018-11-06T07:13:00.754Z,58.60
2018-11-06T07:15:56.402Z,58.40
2018-11-06T07:18:49.415Z,58.40
2018-11-06T07:21:43.016Z,58.30
2018-11-06T07:24:37.155Z,58.10
2018-11-06T07:27:30.199Z,58.20
2018-11-06T07:30:24.520Z,58.10
2018-11-06T07:33:33.821Z,58.00
2018-11-06T07:37:32.880Z,57.80
2018-11-06T07:39:57.003Z,57.70
2018-11-06T07:42:54.115Z,57.70
2018-11-06T07:46:44.749Z,57.70
2018-11-06T07:49:56.669Z,57.60
2018-11-06T07:53:01.100Z,57.60
2018-11-06T07:55:56.746Z,57.50
2018-11-06T07:59:22.955Z,57.40
2018-11-06T08:02:30.397Z,57.30
2018-11-06T08:05:23.920Z,57.50
2018-11-06T08:08:26.935Z,57.50
2018-11-06T08:11:19.572Z,57.60
2018-11-06T08:14:14.889Z,57.60
2018-11-06T08:17:07.066Z,57.60
2018-11-06T08:19:59.192Z,57.60
2018-11-06T08:22:54.931Z,57.60
2018-11-06T08:25:46.927Z,57.60
2018-11-06T08:28:38.990Z,57.50
2018-11-06T08:31:31.666Z,57.60
2018-11-06T08:34:23.701Z,57.60
2018-11-06T08:37:19.018Z,57.60
2018-11-06T08:40:13.802Z,57.60
2018-11-06T08:43:08.613Z,57.70
2018-11-06T08:46:08.652Z,57.70
2018-11-06T08:48:52.858Z,57.70
2018-11-06T08:51:45.204Z,57.60
2018-11-06T08:54:37.754Z,57.70
2018-11-06T08:57:29.577Z,57.70
2018-11-06T09:00:22.012Z,57.80
2018-11-06T09:03:13.948Z,57.80
2018-11-06T09:06:09.265Z,57.80
2018-11-06T09:08:57.344Z,57.70
2018-11-06T09:11:49.124Z,57.60
2018-11-06T09:14:43.048Z,57.60
2018-11-06T09:17:35.957Z,57.70
2018-11-06T09:20:30.166Z,57.70
2018-11-06T09:23:37.480Z,57.60
2018-11-06T09:26:37.208Z,57.60
2018-11-06T09:29:31.950Z,57.70
2018-11-06T09:32:25.581Z,57.60
2018-11-06T09:35:25.135Z,57.60
2018-11-06T09:38:22.814Z,57.70
2018-11-06T09:41:22.214Z,57.70
2018-11-06T09:44:18.006Z,57.70
2018-11-06T09:47:11.924Z,57.50
2018-11-06T09:50:09.898Z,57.50
2018-11-06T09:53:03.317Z,57.60
2018-11-06T09:55:56.735Z,57.70
2018-11-06T09:58:52.579Z,57.60
2018-11-06T10:12:14.224Z,57.90
2018-11-06T10:15:44.271Z,57.90
2018-11-06T10:18:38.081Z,58.00
2018-11-06T10:21:32.440Z,58.00
2018-11-06T10:24:42.580Z,57.90
2018-11-06T10:27:31.873Z,58.00
2018-11-06T10:30:27.192Z,57.90
2018-11-06T10:33:28.459Z,57.80
2018-11-06T10:36:20.757Z,58.00
2018-11-06T10:45:16.184Z,57.90
2018-11-06T10:48:08.674Z,58.00
2018-11-06T10:51:33.965Z,57.60
2018-11-06T10:54:26.408Z,57.90
2018-11-06T10:57:33.393Z,58.00
2018-11-06T11:04:17.153Z,58.00
2018-11-06T11:07:20.707Z,57.90
2018-11-06T11:10:05.431Z,57.90
2018-11-06T11:16:31.985Z,57.90
2018-11-06T11:19:26.572Z,57.90
2018-11-06T11:22:23.932Z,58.00
2018-11-06T11:25:19.550Z,58.10
2018-11-06T11:32:15.859Z,58.20
2018-11-06T11:35:11.369Z,58.10
2018-11-06T11:38:01.819Z,58.10
2018-11-06T11:40:54.941Z,58.10
2018-11-06T11:43:46.774Z,58.00
2018-11-06T11:46:39.242Z,58.20
2018-11-06T11:49:32.068Z,58.10
2018-11-06T11:52:32.744Z,58.10
2018-11-06T11:58:33.145Z,58.10
2018-11-06T12:01:25.115Z,58.20
2018-11-06T12:04:17.618Z,58.10
2018-11-06T12:07:14.268Z,58.10
2018-11-06T12:10:02.789Z,58.10
2018-11-06T12:13:00.633Z,58.20
2018-11-06T12:15:53.172Z,58.20
2018-11-06T12:18:51.137Z,58.30
2018-11-06T12:21:49.988Z,58.30
2018-11-06T12:24:42.225Z,58.30
2018-11-06T12:27:37.596Z,58.30
2018-11-06T12:30:30.341Z,58.20
2018-11-06T12:33:21.837Z,58.50
2018-11-06T12:36:13.992Z,58.30
2018-11-06T12:39:08.574Z,58.40
2018-11-06T12:41:57.302Z,58.20
2018-11-06T12:44:48.925Z,58.10
2018-11-06T12:47:40.997Z,58.10
2018-11-06T12:51:14.038Z,58.10
2018-11-06T12:54:27.020Z,58.10
2018-11-06T13:00:54.182Z,58.10
2018-11-06T13:03:43.408Z,58.20
2018-11-06T13:06:38.564Z,58.10
2018-11-06T13:09:30.265Z,58.20
2018-11-06T13:12:21.818Z,58.20
2018-11-06T13:15:17.490Z,58.20
2018-11-06T13:18:07.588Z,58.20
2018-11-06T13:20:59.550Z,58.20
2018-11-06T13:23:55.205Z,58.20
2018-11-06T13:27:13.166Z,58.30
2018-11-06T13:30:04.342Z,58.30
2018-11-06T13:32:56.013Z,58.30
2018-11-06T13:35:47.332Z,58.20
2018-11-06T13:38:40.686Z,58.30
2018-11-06T13:41:31.930Z,58.30
2018-11-06T13:47:57.243Z,58.40
2018-11-06T13:50:47.983Z,58.40
2018-11-06T13:53:42.332Z,58.40
2018-11-06T13:56:34.623Z,58.40
2018-11-06T13:59:27.254Z,58.40
2018-11-06T14:02:22.556Z,58.40
2018-11-06T14:05:14.330Z,58.50
2018-11-06T14:08:06.049Z,58.40
2018-11-06T14:10:57.447Z,58.40
2018-11-06T14:14:14.961Z,58.40
2018-11-06T14:17:04.338Z,58.40
2018-11-06T14:19:56.233Z,58.50
2018-11-06T14:22:48.515Z,58.40
2018-11-06T14:25:40.304Z,58.40
2018-11-06T14:32:34.859Z,58.50
2018-11-06T14:36:13.956Z,58.50
2018-11-06T14:45:35.231Z,58.60
2018-11-06T14:48:34.857Z,58.60
2018-11-06T14:51:33.648Z,58.70
2018-11-06T14:54:28.231Z,58.60
2018-11-06T14:57:21.044Z,58.70
2018-11-06T15:00:23.670Z,58.70
2018-11-06T15:03:14.940Z,58.70
2018-11-06T15:06:06.512Z,58.80
2018-11-06T15:08:57.829Z,58.70
2018-11-06T15:12:05.445Z,58.80
2018-11-06T15:14:49.689Z,58.80
2018-11-06T15:17:41.682Z,58.80
2018-11-06T15:20:33.099Z,58.80
2018-11-06T15:23:27.282Z,58.80
2018-11-06T15:26:19.108Z,58.80
2018-11-06T15:29:16.397Z,58.90
2018-11-06T15:32:11.293Z,58.90
2018-11-06T15:35:16.074Z,58.90
2018-11-06T15:38:14.760Z,59.00
2018-11-06T15:41:17.246Z,58.90
2018-11-06T15:44:14.617Z,58.90
2018-11-06T15:47:13.089Z,58.90
2018-11-06T15:50:08.111Z,58.90
2018-11-06T15:53:05.779Z,58.90
2018-11-06T15:55:57.629Z,58.90
2018-11-06T15:58:52.223Z,58.90
2018-11-06T16:02:09.730Z,59.00
2018-11-06T16:05:01.655Z,59.10
2018-11-06T16:14:31.041Z,58.90
2018-11-06T16:17:45.970Z,58.90
2018-11-06T16:20:49.728Z,59.00
2018-11-06T16:23:44.949Z,58.90
2018-11-06T16:26:37.983Z,59.00
2018-11-06T16:29:44.024Z,59.00
2018-11-06T16:32:42.219Z,59.00
2018-11-06T16:35:57.914Z,59.00
2018-11-06T16:38:51.480Z,59.00
2018-11-06T16:41:56.790Z,59.00
2018-11-06T16:44:56.175Z,59.00
2018-11-06T16:48:12.131Z,59.00
2018-11-06T16:51:15.692Z,59.00
2018-11-06T16:54:24.251Z,58.90
2018-11-06T16:57:17.289Z,59.00
2018-11-06T17:00:18.961Z,58.90
2018-11-06T17:03:23.352Z,59.00
2018-11-06T17:06:06.699Z,58.90
2018-11-06T17:09:07.564Z,58.90
2018-11-06T17:12:26.356Z,58.90
2018-11-06T17:15:24.364Z,58.80
2018-11-06T17:18:24.249Z,58.80
2018-11-06T17:26:01.733Z,58.50
2018-11-06T17:28:55.450Z,58.50
2018-11-06T17:31:48.230Z,58.60
2018-11-06T17:34:39.807Z,58.40
2018-11-06T17:37:35.172Z,58.40
2018-11-06T17:48:12.623Z,58.20
2018-11-06T17:51:11.133Z,58.20
2018-11-06T17:58:33.880Z,58.10
2018-11-06T18:01:28.282Z,58.00
2018-11-06T18:04:19.914Z,57.80
2018-11-06T18:07:10.871Z,57.80
2018-11-06T18:10:02.216Z,57.80
2018-11-06T18:12:53.706Z,58.10
2018-11-06T18:15:45.213Z,58.10
2018-11-06T18:18:36.703Z,58.30
2018-11-06T18:21:28.309Z,58.10
2018-11-06T18:24:19.657Z,58.20
2018-11-06T18:27:10.736Z,58.30
2018-11-06T18:30:01.843Z,58.30
2018-11-06T18:32:53.285Z,58.30
2018-11-06T18:35:45.020Z,58.50
2018-11-06T18:38:40.307Z,58.50
2018-11-06T18:41:30.336Z,58.30
2018-11-06T18:44:21.617Z,58.10
2018-11-06T18:47:18.794Z,58.00
2018-11-06T18:50:07.354Z,58.10
2018-11-06T18:52:58.647Z,58.10
2018-11-06T18:55:52.428Z,57.90
2018-11-06T18:58:46.630Z,57.60
2018-11-06T19:01:38.056Z,57.60
2018-11-06T19:04:29.587Z,57.70
2018-11-06T19:07:21.294Z,57.70
2018-11-06T19:10:14.239Z,57.80
2018-11-06T19:13:10.759Z,57.70
2018-11-06T19:16:02.271Z,57.70
2018-11-06T19:18:54.123Z,57.60
2018-11-06T19:21:45.619Z,58.20
2018-11-06T19:24:37.474Z,57.40
2018-11-06T19:27:29.118Z,57.30
2018-11-06T19:30:22.175Z,57.40
2018-11-06T19:33:17.408Z,57.10
2018-11-06T19:36:09.210Z,57.10
2018-11-06T19:39:01.722Z,57.20
2018-11-06T19:41:53.218Z,56.90
2018-11-06T19:44:44.822Z,57.00
2018-11-06T19:47:36.304Z,56.90
2018-11-06T19:50:27.730Z,56.90
2018-11-06T19:53:19.590Z,56.80
2018-11-06T19:56:11.032Z,56.80
2018-11-06T19:59:02.317Z,56.30
2018-11-06T20:01:53.795Z,56.30
2018-11-06T20:04:45.862Z,56.10
2018-11-06T20:07:37.490Z,56.20
2018-11-06T20:10:29.324Z,56.30
2018-11-06T20:13:21.424Z,56.40
2018-11-06T20:16:15.780Z,56.10
2018-11-06T20:19:07.547Z,55.90
2018-11-06T20:21:58.732Z,56.20
2018-11-06T20:24:51.054Z,56.30
2018-11-06T20:27:43.067Z,56.40
2018-11-06T20:30:36.407Z,56.30
2018-11-06T20:33:28.336Z,56.30
2018-11-06T20:36:19.862Z,56.40
2018-11-06T20:39:12.460Z,56.30
2018-11-06T20:42:04.127Z,56.40
2018-11-06T20:44:55.348Z,56.60
2018-11-06T20:47:47.201Z,56.40
2018-11-06T20:50:38.497Z,56.50
2018-11-06T20:53:37.129Z,56.50
2018-11-06T20:56:24.517Z,56.80
2018-11-06T20:59:15.877Z,56.60
2018-11-06T21:02:07.523Z,56.70
2018-11-06T21:04:59.175Z,56.70
2018-11-06T21:07:50.745Z,56.90
2018-11-06T21:10:42.177Z,56.90
2018-11-06T21:13:33.745Z,56.80
2018-11-06T21:16:25.236Z,56.80
2018-11-06T21:19:16.907Z,56.90
2018-11-06T21:22:09.261Z,56.70
2018-11-06T21:25:01.473Z,56.60
2018-11-06T21:27:56.201Z,56.70
2018-11-06T21:30:51.507Z,56.70
2018-11-06T21:33:38.910Z,56.20
2018-11-06T21:36:30.349Z,56.10
2018-11-06T21:42:16.137Z,56.00
2018-11-06T21:45:07.250Z,55.90
2018-11-06T21:47:58.730Z,55.50
2018-11-06T21:50:50.124Z,55.80
2018-11-06T21:53:41.742Z,55.50
2018-11-06T21:56:33.161Z,55.60
2018-11-06T21:59:25.134Z,54.60
2018-11-06T22:02:16.600Z,55.60
2018-11-06T22:05:09.050Z,55.10
2018-11-06T22:08:00.405Z,54.90
2018-11-06T22:10:52.127Z,55.10
2018-11-06T22:13:43.244Z,54.00
2018-11-06T22:16:34.878Z,54.90
2018-11-06T22:19:26.080Z,54.50
2018-11-06T22:22:17.856Z,53.80
2018-11-06T22:25:09.468Z,53.40
2018-11-06T22:28:01.063Z,54.70
2018-11-06T22:30:52.701Z,54.60
2018-11-06T22:33:44.160Z,54.20
2018-11-06T22:36:35.407Z,54.20
2018-11-06T22:39:26.744Z,54.10
2018-11-06T22:42:18.605Z,54.10
2018-11-06T22:45:10.872Z,53.80
2018-11-06T22:48:02.022Z,53.80
2018-11-06T22:50:53.306Z,54.30
2018-11-06T22:53:44.841Z,54.40
2018-11-06T22:56:36.586Z,53.50
2018-11-06T22:59:28.156Z,53.60
2018-11-06T23:02:19.478Z,53.60
2018-11-06T23:05:11.727Z,54.20
2018-11-06T23:08:19.684Z,54.50
2018-11-06T23:11:11.108Z,54.30
2018-11-06T23:14:02.673Z,54.10
2018-11-06T23:16:54.156Z,54.10
2018-11-06T23:19:49.433Z,54.10
2018-11-06T23:22:40.752Z,53.90
2018-11-06T23:25:32.311Z,54.20
2018-11-06T23:28:23.719Z,54.20
2018-11-06T23:31:15.027Z,54.00
2018-11-06T23:34:06.401Z,53.70
2018-11-06T23:36:58.061Z,54.00
2018-11-06T23:39:49.641Z,53.50
2018-11-06T23:42:41.630Z,54.20
2018-11-06T23:45:32.944Z,53.90
2018-11-06T23:48:24.505Z,53.70
2018-11-06T23:51:16.129Z,53.50
2018-11-06T23:54:07.347Z,53.50
2018-11-06T23:56:59.178Z,53.40
2018-11-06T23:59:50.819Z,53.20
